sensor_id;sensor_type;location;lat;lon;timestamp;pressure;altitude;pressure_sealevel;temperature;humidity
77019;BME280;66044;53.142;17.962;2023-07-13T00:02:16;100633.41;;;18.54;72.90
77019;BME280;66044;53.142;17.962;2023-07-13T00:04:42;100631.97;;;18.50;72.89
77019;BME280;66044;53.142;17.962;2023-07-13T00:07:09;100634.76;;;18.46;72.92
77019;BME280;66044;53.142;17.962;2023-07-13T00:09:35;100637.45;;;18.41;72.90
77019;BME280;66044;53.142;17.962;2023-07-13T00:12:02;100644.02;;;18.36;72.94
77019;BME280;66044;53.142;17.962;2023-07-13T00:14:29;100644.45;;;18.31;72.95
77019;BME280;66044;53.142;17.962;2023-07-13T00:16:55;100649.47;;;18.26;72.98
77019;BME280;66044;53.142;17.962;2023-07-13T00:19:22;100649.59;;;18.21;73.14
77019;BME280;66044;53.142;17.962;2023-07-13T00:21:48;100650.56;;;18.16;73.26
77019;BME280;66044;53.142;17.962;2023-07-13T00:24:17;100654.02;;;18.11;73.31
77019;BME280;66044;53.142;17.962;2023-07-13T00:26:49;100652.95;;;18.06;73.38
77019;BME280;66044;53.142;17.962;2023-07-13T00:29:16;100656.42;;;18.01;73.47
77019;BME280;66044;53.142;17.962;2023-07-13T00:31:42;100656.05;;;17.94;73.59
77019;BME280;66044;53.142;17.962;2023-07-13T00:34:10;100658.18;;;17.89;73.52
77019;BME280;66044;53.142;17.962;2023-07-13T00:36:36;100662.34;;;17.85;73.57
77019;BME280;66044;53.142;17.962;2023-07-13T00:39:03;100662.70;;;17.83;73.50
77019;BME280;66044;53.142;17.962;2023-07-13T00:41:30;100661.76;;;17.80;73.58
77019;BME280;66044;53.142;17.962;2023-07-13T00:43:57;100668.48;;;17.77;73.50
77019;BME280;66044;53.142;17.962;2023-07-13T00:46:27;100669.70;;;17.75;73.62
77019;BME280;66044;53.142;17.962;2023-07-13T00:48:57;100673.80;;;17.73;73.65
77019;BME280;66044;53.142;17.962;2023-07-13T00:51:30;100677.33;;;17.70;73.63
77019;BME280;66044;53.142;17.962;2023-07-13T00:54:00;100684.98;;;17.67;73.65
77019;BME280;66044;53.142;17.962;2023-07-13T00:56:27;100690.96;;;17.66;73.59
77019;BME280;66044;53.142;17.962;2023-07-13T00:58:55;100692.34;;;17.64;73.64
77019;BME280;66044;53.142;17.962;2023-07-13T01:01:22;100700.85;;;17.62;73.58
77019;BME280;66044;53.142;17.962;2023-07-13T01:03:49;100705.31;;;17.61;73.58
77019;BME280;66044;53.142;17.962;2023-07-13T01:06:16;100705.52;;;17.60;73.57
77019;BME280;66044;53.142;17.962;2023-07-13T01:08:43;100696.36;;;17.60;73.54
77019;BME280;66044;53.142;17.962;2023-07-13T01:11:10;100693.96;;;17.59;73.55
77019;BME280;66044;53.142;17.962;2023-07-13T01:13:36;100694.42;;;17.59;73.63
77019;BME280;66044;53.142;17.962;2023-07-13T01:16:11;100693.48;;;17.58;73.62
77019;BME280;66044;53.142;17.962;2023-07-13T01:18:39;100687.76;;;17.59;73.64
77019;BME280;66044;53.142;17.962;2023-07-13T01:21:06;100686.13;;;17.59;73.74
77019;BME280;66044;53.142;17.962;2023-07-13T01:23:32;100681.23;;;17.59;73.78
77019;BME280;66044;53.142;17.962;2023-07-13T01:26:00;100681.45;;;17.59;73.79
77019;BME280;66044;53.142;17.962;2023-07-13T01:28:27;100680.61;;;17.58;73.82
77019;BME280;66044;53.142;17.962;2023-07-13T01:30:57;100681.92;;;17.57;73.87
77019;BME280;66044;53.142;17.962;2023-07-13T01:33:24;100687.65;;;17.57;73.87
77019;BME280;66044;53.142;17.962;2023-07-13T01:35:51;100682.43;;;17.55;73.81
77019;BME280;66044;53.142;17.962;2023-07-13T01:38:20;100685.84;;;17.55;73.78
77019;BME280;66044;53.142;17.962;2023-07-13T01:40:47;100685.20;;;17.54;73.75
77019;BME280;66044;53.142;17.962;2023-07-13T01:43:14;100686.57;;;17.51;73.62
77019;BME280;66044;53.142;17.962;2023-07-13T01:45:40;100693.79;;;17.50;73.66
77019;BME280;66044;53.142;17.962;2023-07-13T01:48:06;100699.13;;;17.48;73.67
77019;BME280;66044;53.142;17.962;2023-07-13T01:50:33;100708.95;;;17.47;73.57
77019;BME280;66044;53.142;17.962;2023-07-13T01:53:01;100719.19;;;17.46;73.60
77019;BME280;66044;53.142;17.962;2023-07-13T01:55:28;100720.29;;;17.47;73.57
77019;BME280;66044;53.142;17.962;2023-07-13T01:57:56;100716.73;;;17.48;73.62
77019;BME280;66044;53.142;17.962;2023-07-13T02:00:22;100708.05;;;17.48;73.59
77019;BME280;66044;53.142;17.962;2023-07-13T02:02:48;100702.30;;;17.48;73.68
77019;BME280;66044;53.142;17.962;2023-07-13T02:05:15;100703.20;;;17.47;73.56
77019;BME280;66044;53.142;17.962;2023-07-13T02:07:42;100695.98;;;17.46;73.66
77019;BME280;66044;53.142;17.962;2023-07-13T02:10:10;100702.96;;;17.45;73.74
77019;BME280;66044;53.142;17.962;2023-07-13T02:12:37;100704.41;;;17.43;73.69
77019;BME280;66044;53.142;17.962;2023-07-13T02:15:05;100702.04;;;17.39;73.81
77019;BME280;66044;53.142;17.962;2023-07-13T02:17:31;100701.95;;;17.38;73.91
77019;BME280;66044;53.142;17.962;2023-07-13T02:19:58;100689.20;;;17.36;73.88
77019;BME280;66044;53.142;17.962;2023-07-13T02:22:24;100684.23;;;17.34;73.93
77019;BME280;66044;53.142;17.962;2023-07-13T02:24:51;100678.09;;;17.33;73.98
77019;BME280;66044;53.142;17.962;2023-07-13T02:27:18;100679.88;;;17.33;73.87
77019;BME280;66044;53.142;17.962;2023-07-13T02:29:45;100673.90;;;17.34;74.02
77019;BME280;66044;53.142;17.962;2023-07-13T02:32:11;100676.39;;;17.34;74.02
77019;BME280;66044;53.142;17.962;2023-07-13T02:34:41;100682.43;;;17.33;74.07
77019;BME280;66044;53.142;17.962;2023-07-13T02:37:08;100682.33;;;17.32;74.13
77019;BME280;66044;53.142;17.962;2023-07-13T02:39:34;100683.45;;;17.27;74.27
77019;BME280;66044;53.142;17.962;2023-07-13T02:42:01;100689.70;;;17.25;74.39
77019;BME280;66044;53.142;17.962;2023-07-13T02:44:27;100693.56;;;17.24;74.31
77019;BME280;66044;53.142;17.962;2023-07-13T02:46:54;100693.12;;;17.25;74.25
77019;BME280;66044;53.142;17.962;2023-07-13T02:49:21;100687.38;;;17.26;74.29
77019;BME280;66044;53.142;17.962;2023-07-13T02:51:47;100681.04;;;17.27;74.17
77019;BME280;66044;53.142;17.962;2023-07-13T02:54:13;100677.10;;;17.28;74.21
77019;BME280;66044;53.142;17.962;2023-07-13T02:56:40;100678.49;;;17.28;74.32
77019;BME280;66044;53.142;17.962;2023-07-13T02:59:07;100684.16;;;17.29;74.35
77019;BME280;66044;53.142;17.962;2023-07-13T03:01:34;100684.77;;;17.29;74.41
77019;BME280;66044;53.142;17.962;2023-07-13T03:04:02;100677.95;;;17.30;74.37
77019;BME280;66044;53.142;17.962;2023-07-13T03:06:31;100682.85;;;17.31;74.47
77019;BME280;66044;53.142;17.962;2023-07-13T03:08:58;100684.34;;;17.32;74.43
77019;BME280;66044;53.142;17.962;2023-07-13T03:11:24;100686.66;;;17.31;74.31
77019;BME280;66044;53.142;17.962;2023-07-13T03:13:51;100676.98;;;17.32;74.27
77019;BME280;66044;53.142;17.962;2023-07-13T03:16:18;100673.65;;;17.33;74.12
77019;BME280;66044;53.142;17.962;2023-07-13T03:18:46;100671.83;;;17.35;74.14
77019;BME280;66044;53.142;17.962;2023-07-13T03:21:12;100675.73;;;17.38;74.07
77019;BME280;66044;53.142;17.962;2023-07-13T03:23:39;100680.91;;;17.44;73.94
77019;BME280;66044;53.142;17.962;2023-07-13T03:26:10;100687.73;;;17.49;73.95
77019;BME280;66044;53.142;17.962;2023-07-13T03:28:36;100693.36;;;17.54;73.70
77019;BME280;66044;53.142;17.962;2023-07-13T03:31:06;100699.86;;;17.58;73.67
77019;BME280;66044;53.142;17.962;2023-07-13T03:33:33;100699.56;;;17.61;73.54
77019;BME280;66044;53.142;17.962;2023-07-13T03:36:00;100694.17;;;17.63;73.48
77019;BME280;66044;53.142;17.962;2023-07-13T03:38:26;100700.92;;;17.69;73.47
77019;BME280;66044;53.142;17.962;2023-07-13T03:40:53;100701.61;;;17.75;73.38
77019;BME280;66044;53.142;17.962;2023-07-13T03:43:19;100704.38;;;17.80;73.28
77019;BME280;66044;53.142;17.962;2023-07-13T03:45:46;100705.25;;;17.83;73.16
77019;BME280;66044;53.142;17.962;2023-07-13T03:48:14;100703.80;;;17.85;73.09
77019;BME280;66044;53.142;17.962;2023-07-13T03:50:41;100704.52;;;17.87;72.96
77019;BME280;66044;53.142;17.962;2023-07-13T03:53:07;100710.27;;;17.87;72.96
77019;BME280;66044;53.142;17.962;2023-07-13T03:55:34;100713.55;;;17.88;72.76
77019;BME280;66044;53.142;17.962;2023-07-13T03:58:39;100714.56;;;17.88;72.75
77019;BME280;66044;53.142;17.962;2023-07-13T04:01:08;100718.38;;;17.91;72.68
77019;BME280;66044;53.142;17.962;2023-07-13T04:03:34;100718.79;;;17.93;72.67
77019;BME280;66044;53.142;17.962;2023-07-13T04:06:04;100728.29;;;17.95;72.67
77019;BME280;66044;53.142;17.962;2023-07-13T04:08:34;100728.02;;;18.01;72.53
77019;BME280;66044;53.142;17.962;2023-07-13T04:11:02;100730.48;;;18.15;72.47
77019;BME280;66044;53.142;17.962;2023-07-13T04:13:30;100731.41;;;18.98;71.72
77019;BME280;66044;53.142;17.962;2023-07-13T04:15:56;100731.19;;;19.49;70.82
77019;BME280;66044;53.142;17.962;2023-07-13T04:18:23;100731.95;;;19.93;69.94
77019;BME280;66044;53.142;17.962;2023-07-13T04:20:50;100724.48;;;20.08;69.21
77019;BME280;66044;53.142;17.962;2023-07-13T04:23:17;100716.31;;;20.60;68.26
77019;BME280;66044;53.142;17.962;2023-07-13T04:25:45;100716.59;;;21.19;67.23
77019;BME280;66044;53.142;17.962;2023-07-13T04:28:12;100721.95;;;23.35;64.01
77019;BME280;66044;53.142;17.962;2023-07-13T04:30:38;100731.34;;;25.56;60.64
77019;BME280;66044;53.142;17.962;2023-07-13T04:33:05;100750.52;;;26.81;57.74
77019;BME280;66044;53.142;17.962;2023-07-13T04:35:31;100758.43;;;27.89;54.78
77019;BME280;66044;53.142;17.962;2023-07-13T04:37:57;100752.73;;;28.66;52.42
77019;BME280;66044;53.142;17.962;2023-07-13T04:40:25;100756.35;;;28.68;51.29
77019;BME280;66044;53.142;17.962;2023-07-13T04:42:53;100758.90;;;29.22;49.86
77019;BME280;66044;53.142;17.962;2023-07-13T04:45:20;100758.66;;;30.56;47.75
77019;BME280;66044;53.142;17.962;2023-07-13T04:47:47;100776.66;;;32.01;45.21
77019;BME280;66044;53.142;17.962;2023-07-13T04:50:13;100787.89;;;33.27;43.16
77019;BME280;66044;53.142;17.962;2023-07-13T04:52:47;100792.44;;;34.54;40.59
77019;BME280;66044;53.142;17.962;2023-07-13T04:55:14;100795.85;;;34.35;39.81
77019;BME280;66044;53.142;17.962;2023-07-13T04:57:40;100798.99;;;33.93;38.93
77019;BME280;66044;53.142;17.962;2023-07-13T05:00:07;100795.94;;;33.89;38.84
77019;BME280;66044;53.142;17.962;2023-07-13T05:02:34;100796.84;;;33.76;38.44
77019;BME280;66044;53.142;17.962;2023-07-13T05:05:02;100807.58;;;32.82;39.00
77019;BME280;66044;53.142;17.962;2023-07-13T05:07:30;100805.23;;;32.25;39.39
77019;BME280;66044;53.142;17.962;2023-07-13T05:09:56;100805.39;;;32.25;39.45
77019;BME280;66044;53.142;17.962;2023-07-13T05:12:22;100802.86;;;32.26;38.94
77019;BME280;66044;53.142;17.962;2023-07-13T05:14:49;100803.14;;;32.46;38.87
77019;BME280;66044;53.142;17.962;2023-07-13T05:17:16;100799.02;;;31.80;39.35
77019;BME280;66044;53.142;17.962;2023-07-13T05:19:43;100794.59;;;31.08;39.73
77019;BME280;66044;53.142;17.962;2023-07-13T05:22:10;100796.42;;;31.74;39.15
77019;BME280;66044;53.142;17.962;2023-07-13T05:24:36;100799.27;;;33.61;37.56
77019;BME280;66044;53.142;17.962;2023-07-13T05:27:03;100802.89;;;35.67;35.22
77019;BME280;66044;53.142;17.962;2023-07-13T05:29:30;100810.70;;;37.55;33.15
77019;BME280;66044;53.142;17.962;2023-07-13T05:31:57;100813.00;;;39.25;31.22
77019;BME280;66044;53.142;17.962;2023-07-13T05:34:23;100823.88;;;40.74;29.09
77019;BME280;66044;53.142;17.962;2023-07-13T05:36:50;100833.84;;;42.19;27.52
77019;BME280;66044;53.142;17.962;2023-07-13T05:39:16;100835.59;;;43.12;25.70
77019;BME280;66044;53.142;17.962;2023-07-13T05:41:43;100837.04;;;43.23;24.80
77019;BME280;66044;53.142;17.962;2023-07-13T05:44:09;100837.54;;;42.68;24.85
77019;BME280;66044;53.142;17.962;2023-07-13T05:46:36;100825.21;;;41.38;25.50
77019;BME280;66044;53.142;17.962;2023-07-13T05:49:02;100812.02;;;40.66;26.09
77019;BME280;66044;53.142;17.962;2023-07-13T05:51:29;100815.29;;;41.62;25.42
77019;BME280;66044;53.142;17.962;2023-07-13T05:53:56;100814.80;;;42.92;24.40
77019;BME280;66044;53.142;17.962;2023-07-13T05:56:22;100820.56;;;43.59;23.55
77019;BME280;66044;53.142;17.962;2023-07-13T05:58:49;100825.94;;;44.48;22.79
77019;BME280;66044;53.142;17.962;2023-07-13T06:01:16;100828.04;;;43.22;23.13
77019;BME280;66044;53.142;17.962;2023-07-13T06:03:43;100826.09;;;41.82;23.46
77019;BME280;66044;53.142;17.962;2023-07-13T06:06:10;100828.92;;;41.77;23.97
77019;BME280;66044;53.142;17.962;2023-07-13T06:08:37;100829.71;;;42.86;23.26
77019;BME280;66044;53.142;17.962;2023-07-13T06:11:09;100821.33;;;43.96;22.64
77019;BME280;66044;53.142;17.962;2023-07-13T06:13:38;100826.69;;;45.49;21.43
77019;BME280;66044;53.142;17.962;2023-07-13T06:16:05;100825.23;;;46.27;20.77
77019;BME280;66044;53.142;17.962;2023-07-13T06:18:33;100824.16;;;47.21;19.80
77019;BME280;66044;53.142;17.962;2023-07-13T06:21:00;100827.83;;;47.87;18.98
77019;BME280;66044;53.142;17.962;2023-07-13T06:23:27;100827.08;;;48.43;18.82
77019;BME280;66044;53.142;17.962;2023-07-13T06:25:53;100832.02;;;48.95;18.24
77019;BME280;66044;53.142;17.962;2023-07-13T06:28:19;100836.80;;;49.58;17.83
77019;BME280;66044;53.142;17.962;2023-07-13T06:30:46;100838.85;;;50.29;16.96
77019;BME280;66044;53.142;17.962;2023-07-13T06:33:12;100830.75;;;50.61;16.36
77019;BME280;66044;53.142;17.962;2023-07-13T06:35:39;100827.53;;;50.86;16.04
77019;BME280;66044;53.142;17.962;2023-07-13T06:38:05;100831.64;;;51.50;15.39
77019;BME280;66044;53.142;17.962;2023-07-13T06:40:32;100832.56;;;51.89;15.04
77019;BME280;66044;53.142;17.962;2023-07-13T06:42:58;100826.79;;;50.60;15.26
77019;BME280;66044;53.142;17.962;2023-07-13T06:45:25;100818.52;;;49.79;15.85
77019;BME280;66044;53.142;17.962;2023-07-13T06:47:51;100815.77;;;48.48;16.69
77019;BME280;66044;53.142;17.962;2023-07-13T06:50:18;100822.52;;;47.03;17.15
77019;BME280;66044;53.142;17.962;2023-07-13T06:52:44;100817.95;;;45.18;18.46
77019;BME280;66044;53.142;17.962;2023-07-13T06:55:11;100813.88;;;43.73;19.19
77019;BME280;66044;53.142;17.962;2023-07-13T06:57:37;100819.61;;;42.35;20.45
77019;BME280;66044;53.142;17.962;2023-07-13T07:00:04;100816.48;;;41.37;21.45
77019;BME280;66044;53.142;17.962;2023-07-13T07:02:32;100809.78;;;40.29;22.15
77019;BME280;66044;53.142;17.962;2023-07-13T07:04:59;100803.85;;;39.28;23.24
77019;BME280;66044;53.142;17.962;2023-07-13T07:07:25;100801.14;;;38.38;24.07
77019;BME280;66044;53.142;17.962;2023-07-13T07:09:52;100803.01;;;37.58;25.06
77019;BME280;66044;53.142;17.962;2023-07-13T07:12:18;100806.80;;;36.76;26.05
77019;BME280;66044;53.142;17.962;2023-07-13T07:14:44;100808.61;;;35.76;27.20
77019;BME280;66044;53.142;17.962;2023-07-13T07:17:11;100805.46;;;34.52;28.54
77019;BME280;66044;53.142;17.962;2023-07-13T07:19:38;100805.08;;;33.31;29.78
77019;BME280;66044;53.142;17.962;2023-07-13T07:22:04;100804.77;;;32.71;30.34
77019;BME280;66044;53.142;17.962;2023-07-13T07:24:31;100797.52;;;33.47;30.23
77019;BME280;66044;53.142;17.962;2023-07-13T07:26:57;100805.76;;;35.76;28.51
77019;BME280;66044;53.142;17.962;2023-07-13T07:29:24;100816.06;;;38.23;26.29
77019;BME280;66044;53.142;17.962;2023-07-13T07:31:52;100817.31;;;40.52;23.99
77019;BME280;66044;53.142;17.962;2023-07-13T07:34:19;100819.58;;;42.09;22.72
77019;BME280;66044;53.142;17.962;2023-07-13T07:36:46;100818.69;;;42.58;21.76
77019;BME280;66044;53.142;17.962;2023-07-13T07:39:12;100820.89;;;43.35;21.14
77019;BME280;66044;53.142;17.962;2023-07-13T07:41:39;100818.21;;;44.53;20.44
77019;BME280;66044;53.142;17.962;2023-07-13T07:44:05;100814.39;;;44.91;19.69
77019;BME280;66044;53.142;17.962;2023-07-13T07:46:33;100815.42;;;44.96;19.22
77019;BME280;66044;53.142;17.962;2023-07-13T07:49:00;100814.98;;;44.23;19.52
77019;BME280;66044;53.142;17.962;2023-07-13T07:51:26;100815.63;;;43.26;20.04
77019;BME280;66044;53.142;17.962;2023-07-13T07:53:53;100817.02;;;42.39;20.76
77019;BME280;66044;53.142;17.962;2023-07-13T07:56:19;100812.86;;;41.45;21.49
77019;BME280;66044;53.142;17.962;2023-07-13T07:58:46;100809.16;;;40.60;22.37
77019;BME280;66044;53.142;17.962;2023-07-13T08:01:12;100804.55;;;40.02;22.80
77019;BME280;66044;53.142;17.962;2023-07-13T08:03:39;100803.98;;;39.56;23.21
77019;BME280;66044;53.142;17.962;2023-07-13T08:06:05;100807.17;;;39.16;23.47
77019;BME280;66044;53.142;17.962;2023-07-13T08:08:31;100807.44;;;38.63;23.55
77019;BME280;66044;53.142;17.962;2023-07-13T08:11:02;100804.36;;;37.89;24.50
77019;BME280;66044;53.142;17.962;2023-07-13T08:13:29;100802.33;;;37.10;25.15
77019;BME280;66044;53.142;17.962;2023-07-13T08:15:55;100800.02;;;36.68;25.97
77019;BME280;66044;53.142;17.962;2023-07-13T08:18:22;100795.96;;;36.29;25.95
77019;BME280;66044;53.142;17.962;2023-07-13T08:20:48;100790.75;;;35.86;26.15
77019;BME280;66044;53.142;17.962;2023-07-13T08:23:15;100792.45;;;35.46;26.80
77019;BME280;66044;53.142;17.962;2023-07-13T08:25:43;100795.77;;;35.26;27.10
77019;BME280;66044;53.142;17.962;2023-07-13T08:28:16;100787.38;;;35.01;27.17
77019;BME280;66044;53.142;17.962;2023-07-13T08:30:42;100782.32;;;34.88;27.32
77019;BME280;66044;53.142;17.962;2023-07-13T08:33:09;100777.30;;;34.63;27.60
77019;BME280;66044;53.142;17.962;2023-07-13T08:35:35;100772.35;;;34.49;27.39
77019;BME280;66044;53.142;17.962;2023-07-13T08:38:01;100768.83;;;34.30;27.22
77019;BME280;66044;53.142;17.962;2023-07-13T08:40:28;100764.16;;;34.21;27.54
77019;BME280;66044;53.142;17.962;2023-07-13T08:42:58;100763.04;;;34.20;27.34
77019;BME280;66044;53.142;17.962;2023-07-13T08:45:38;100763.96;;;34.27;27.63
77019;BME280;66044;53.142;17.962;2023-07-13T08:48:11;100766.22;;;34.30;27.82
77019;BME280;66044;53.142;17.962;2023-07-13T08:50:49;100773.32;;;34.15;27.84
77019;BME280;66044;53.142;17.962;2023-07-13T08:53:18;100772.08;;;33.93;28.19
77019;BME280;66044;53.142;17.962;2023-07-13T08:55:45;100773.59;;;33.61;28.14
77019;BME280;66044;53.142;17.962;2023-07-13T08:58:14;100781.02;;;33.07;28.40
77019;BME280;66044;53.142;17.962;2023-07-13T09:01:00;100782.80;;;32.41;29.22
77019;BME280;66044;53.142;17.962;2023-07-13T09:03:35;100785.23;;;31.69;29.82
77019;BME280;66044;53.142;17.962;2023-07-13T09:06:03;100782.88;;;31.18;30.46
77019;BME280;66044;53.142;17.962;2023-07-13T09:08:58;100782.45;;;30.83;31.08
77019;BME280;66044;53.142;17.962;2023-07-13T09:14:26;100771.27;;;30.69;32.14
77019;BME280;66044;53.142;17.962;2023-07-13T09:16:58;100768.13;;;30.69;32.13
77019;BME280;66044;53.142;17.962;2023-07-13T09:19:30;100766.08;;;30.71;32.08
77019;BME280;66044;53.142;17.962;2023-07-13T09:22:02;100770.88;;;30.79;31.88
77019;BME280;66044;53.142;17.962;2023-07-13T09:24:41;100771.81;;;30.87;31.63
77019;BME280;66044;53.142;17.962;2023-07-13T09:27:28;100774.04;;;30.88;31.62
77019;BME280;66044;53.142;17.962;2023-07-13T09:32:37;100771.63;;;30.67;31.62
77019;BME280;66044;53.142;17.962;2023-07-13T09:35:11;100770.70;;;30.51;31.53
77019;BME280;66044;53.142;17.962;2023-07-13T09:37:38;100769.45;;;30.35;31.60
77019;BME280;66044;53.142;17.962;2023-07-13T09:40:22;100772.88;;;30.23;31.66
77019;BME280;66044;53.142;17.962;2023-07-13T09:42:53;100774.95;;;30.25;31.79
77019;BME280;66044;53.142;17.962;2023-07-13T09:45:27;100773.24;;;30.39;31.76
77019;BME280;66044;53.142;17.962;2023-07-13T09:48:06;100771.70;;;30.61;31.50
77019;BME280;66044;53.142;17.962;2023-07-13T09:50:35;100767.27;;;30.78;31.38
77019;BME280;66044;53.142;17.962;2023-07-13T09:53:01;100766.13;;;30.86;31.12
77019;BME280;66044;53.142;17.962;2023-07-13T09:55:32;100764.00;;;30.93;30.82
77019;BME280;66044;53.142;17.962;2023-07-13T09:58:08;100760.97;;;30.98;30.44
77019;BME280;66044;53.142;17.962;2023-07-13T10:00:37;100757.33;;;31.02;30.23
77019;BME280;66044;53.142;17.962;2023-07-13T10:03:54;100758.39;;;31.03;29.96
77019;BME280;66044;53.142;17.962;2023-07-13T10:06:22;100755.11;;;31.00;30.33
77019;BME280;66044;53.142;17.962;2023-07-13T10:08:50;100754.27;;;30.91;30.34
77019;BME280;66044;53.142;17.962;2023-07-13T10:11:28;100757.71;;;30.85;30.02
77019;BME280;66044;53.142;17.962;2023-07-13T10:13:59;100757.74;;;30.78;29.57
77019;BME280;66044;53.142;17.962;2023-07-13T10:16:31;100760.43;;;30.77;29.46
77019;BME280;66044;53.142;17.962;2023-07-13T10:19:07;100754.54;;;30.66;29.65
77019;BME280;66044;53.142;17.962;2023-07-13T10:21:57;100750.94;;;30.60;29.83
77019;BME280;66044;53.142;17.962;2023-07-13T10:24:31;100757.25;;;30.53;29.49
77019;BME280;66044;53.142;17.962;2023-07-13T10:27:09;100752.38;;;30.50;29.55
77019;BME280;66044;53.142;17.962;2023-07-13T10:29:41;100752.40;;;30.44;29.32
77019;BME280;66044;53.142;17.962;2023-07-13T10:32:11;100751.83;;;30.43;29.04
77019;BME280;66044;53.142;17.962;2023-07-13T10:34:39;100752.86;;;30.46;29.16
77019;BME280;66044;53.142;17.962;2023-07-13T10:37:15;100749.39;;;30.49;28.84
77019;BME280;66044;53.142;17.962;2023-07-13T10:39:43;100747.42;;;30.39;28.71
77019;BME280;66044;53.142;17.962;2023-07-13T10:42:16;100745.27;;;30.32;28.91
77019;BME280;66044;53.142;17.962;2023-07-13T10:44:44;100744.21;;;30.27;29.22
77019;BME280;66044;53.142;17.962;2023-07-13T10:47:14;100747.84;;;30.25;29.35
77019;BME280;66044;53.142;17.962;2023-07-13T10:49:42;100747.84;;;30.33;29.43
77019;BME280;66044;53.142;17.962;2023-07-13T10:55:30;100747.17;;;30.44;29.07
77019;BME280;66044;53.142;17.962;2023-07-13T10:58:01;100751.67;;;30.54;28.97
77019;BME280;66044;53.142;17.962;2023-07-13T11:00:31;100747.17;;;30.57;28.95
77019;BME280;66044;53.142;17.962;2023-07-13T11:03:00;100749.94;;;30.52;29.04
77019;BME280;66044;53.142;17.962;2023-07-13T11:05:32;100748.73;;;30.48;29.15
77019;BME280;66044;53.142;17.962;2023-07-13T11:08:33;100748.70;;;30.46;29.14
77019;BME280;66044;53.142;17.962;2023-07-13T11:11:00;100744.83;;;30.45;29.12
77019;BME280;66044;53.142;17.962;2023-07-13T11:13:57;100756.89;;;30.42;29.44
77019;BME280;66044;53.142;17.962;2023-07-13T11:21:28;100753.52;;;30.15;29.98
77019;BME280;66044;53.142;17.962;2023-07-13T11:24:04;100754.17;;;29.96;29.99
77019;BME280;66044;53.142;17.962;2023-07-13T11:26:59;100748.31;;;29.84;30.19
77019;BME280;66044;53.142;17.962;2023-07-13T11:32:00;100746.21;;;29.58;30.68
77019;BME280;66044;53.142;17.962;2023-07-13T11:34:35;100748.73;;;29.45;30.67
77019;BME280;66044;53.142;17.962;2023-07-13T11:37:02;100751.51;;;29.38;30.41
77019;BME280;66044;53.142;17.962;2023-07-13T11:39:32;100754.94;;;29.28;30.62
77019;BME280;66044;53.142;17.962;2023-07-13T11:42:01;100755.52;;;29.21;30.85
77019;BME280;66044;53.142;17.962;2023-07-13T11:44:32;100756.82;;;29.14;31.17
77019;BME280;66044;53.142;17.962;2023-07-13T11:47:08;100754.73;;;29.04;31.41
77019;BME280;66044;53.142;17.962;2023-07-13T11:49:42;100757.45;;;28.96;31.53
77019;BME280;66044;53.142;17.962;2023-07-13T11:52:12;100754.86;;;28.96;31.80
77019;BME280;66044;53.142;17.962;2023-07-13T11:54:52;100755.50;;;29.02;32.45
77019;BME280;66044;53.142;17.962;2023-07-13T11:57:28;100754.23;;;29.13;32.70
77019;BME280;66044;53.142;17.962;2023-07-13T11:59:59;100746.85;;;29.22;32.41
77019;BME280;66044;53.142;17.962;2023-07-13T12:02:37;100745.20;;;29.31;32.47
77019;BME280;66044;53.142;17.962;2023-07-13T12:05:05;100748.16;;;29.41;32.54
77019;BME280;66044;53.142;17.962;2023-07-13T12:07:33;100748.10;;;29.55;32.31
77019;BME280;66044;53.142;17.962;2023-07-13T12:12:36;100746.94;;;29.77;31.94
77019;BME280;66044;53.142;17.962;2023-07-13T12:15:07;100745.45;;;29.81;31.73
77019;BME280;66044;53.142;17.962;2023-07-13T12:17:35;100742.76;;;29.84;31.65
77019;BME280;66044;53.142;17.962;2023-07-13T12:20:14;100741.21;;;29.91;31.10
77019;BME280;66044;53.142;17.962;2023-07-13T12:22:48;100748.41;;;30.04;30.52
77019;BME280;66044;53.142;17.962;2023-07-13T12:25:15;100742.67;;;30.14;30.54
77019;BME280;66044;53.142;17.962;2023-07-13T12:27:47;100743.34;;;30.17;30.26
77019;BME280;66044;53.142;17.962;2023-07-13T12:30:28;100739.85;;;30.14;30.06
77019;BME280;66044;53.142;17.962;2023-07-13T12:33:10;100740.38;;;30.13;30.34
77019;BME280;66044;53.142;17.962;2023-07-13T12:35:48;100740.86;;;30.05;30.46
77019;BME280;66044;53.142;17.962;2023-07-13T12:38:16;100741.73;;;29.99;30.62
77019;BME280;66044;53.142;17.962;2023-07-13T12:40:43;100738.23;;;29.97;30.51
77019;BME280;66044;53.142;17.962;2023-07-13T12:43:13;100733.96;;;29.93;30.46
77019;BME280;66044;53.142;17.962;2023-07-13T12:45:57;100726.09;;;29.83;30.57
77019;BME280;66044;53.142;17.962;2023-07-13T12:48:24;100739.60;;;29.66;30.70
77019;BME280;66044;53.142;17.962;2023-07-13T12:50:53;100735.23;;;29.52;30.70
77019;BME280;66044;53.142;17.962;2023-07-13T12:53:27;100739.27;;;29.42;31.07
77019;BME280;66044;53.142;17.962;2023-07-13T12:55:57;100738.80;;;29.30;31.36
77019;BME280;66044;53.142;17.962;2023-07-13T12:58:37;100743.50;;;29.19;31.35
77019;BME280;66044;53.142;17.962;2023-07-13T13:01:05;100746.13;;;29.08;31.44
77019;BME280;66044;53.142;17.962;2023-07-13T13:03:35;100748.77;;;28.96;31.66
77019;BME280;66044;53.142;17.962;2023-07-13T13:06:26;100745.98;;;28.85;31.65
77019;BME280;66044;53.142;17.962;2023-07-13T13:08:56;100744.92;;;28.75;31.54
77019;BME280;66044;53.142;17.962;2023-07-13T13:11:27;100741.57;;;28.64;32.03